Time;durP1;ratioP1;P1;durP2;ratioP2;P2;SDS_P1;SDS_P2;PMS_P1;PMS_P2;Temp;Humidity;BMP_temperature;BMP_pressure;BME280_temperature;BME280_humidity;BME280_pressure;Samples;Min_cycle;Max_cycle;Signal;HPM_P1;HPM_P2
2022/11/22 00:01:33;;;;;;;43.22;22.65;;;2.50;99.90;;;;;;5102790;28;20044;-78
2022/11/22 00:03:58;;;;;;;38.60;22.27;;;2.90;99.90;;;;;;5081008;28;20079;-81
2022/11/22 00:06:24;;;;;;;44.15;23.23;;;2.70;99.90;;;;;;5082674;28;20070;-85
2022/11/22 00:09:08;;;;;;;42.80;21.98;;;2.60;99.90;;;;;;5088141;28;20032;-87
2022/11/22 00:11:34;;;;;;;40.17;22.33;;;2.50;99.90;;;;;;5073775;28;20032;-81
2022/11/22 00:14:00;;;;;;;37.95;21.73;;;2.50;99.90;;;;;;5113987;28;20048;-82
2022/11/22 00:16:25;;;;;;;40.53;21.40;;;2.80;99.90;;;;;;5078563;28;20032;-83
2022/11/22 00:18:51;;;;;;;40.05;22.58;;;2.60;99.90;;;;;;5101850;28;20039;-81
2022/11/22 00:21:17;;;;;;;41.92;23.55;;;2.70;99.90;;;;;;5090611;28;20036;-80
2022/11/22 00:23:42;;;;;;;39.38;21.98;;;2.60;99.90;;;;;;5088059;28;20394;-87
2022/11/22 00:26:10;;;;;;;44.47;22.52;;;2.70;99.90;;;;;;5091752;28;20044;-80
2022/11/22 00:28:38;;;;;;;40.72;22.88;;;2.60;99.90;;;;;;5086484;28;20066;-81
2022/11/22 00:31:04;;;;;;;43.67;23.70;;;2.60;99.90;;;;;;5071847;28;20035;-81
2022/11/22 00:33:29;;;;;;;41.63;22.40;;;2.70;99.90;;;;;;5087905;28;20461;-81
2022/11/22 00:35:55;;;;;;;46.35;21.52;;;2.70;99.90;;;;;;5116566;27;20051;-81
2022/11/22 00:38:20;;;;;;;43.75;22.38;;;2.60;99.90;;;;;;5082138;28;20040;-81
2022/11/22 00:40:46;;;;;;;35.03;19.67;;;2.70;99.90;;;;;;5089959;28;20502;-81
2022/11/22 00:43:12;;;;;;;41.90;21.83;;;2.60;99.90;;;;;;5085442;28;20036;-81
2022/11/22 00:45:40;;;;;;;43.90;24.63;;;2.80;99.90;;;;;;5087706;28;20093;-84
2022/11/22 00:48:05;;;;;;;42.53;21.83;;;2.80;99.90;;;;;;5084534;28;20059;-80
2022/11/22 00:50:31;;;;;;;46.65;25.20;;;2.60;99.90;;;;;;5107742;28;20044;-81
2022/11/22 00:52:57;;;;;;;41.00;23.33;;;2.80;99.90;;;;;;5097104;28;20090;-81
2022/11/22 00:55:22;;;;;;;47.70;23.52;;;2.70;99.90;;;;;;5125858;27;20072;-83
2022/11/22 00:57:48;;;;;;;45.33;25.42;;;2.70;99.90;;;;;;5099159;28;20159;-78
2022/11/22 01:00:14;;;;;;;44.78;25.27;;;2.50;99.90;;;;;;5107875;28;20339;-82
2022/11/22 01:02:40;;;;;;;43.10;23.65;;;2.60;99.90;;;;;;5084132;28;20040;-83
2022/11/22 01:05:06;;;;;;;46.75;24.02;;;2.50;99.90;;;;;;5072687;28;20039;-83
2022/11/22 01:07:31;;;;;;;41.88;22.27;;;2.60;99.90;;;;;;5097821;28;20036;-84
2022/11/22 01:09:57;;;;;;;44.35;24.40;;;2.50;99.90;;;;;;5097357;28;20057;-85
2022/11/22 01:12:23;;;;;;;48.03;26.30;;;2.40;99.90;;;;;;5093129;28;20036;-82
2022/11/22 01:14:49;;;;;;;48.75;24.77;;;2.50;99.90;;;;;;5074330;28;20044;-84
2022/11/22 01:17:14;;;;;;;42.88;22.00;;;2.40;99.90;;;;;;5077738;28;20428;-86
2022/11/22 01:19:43;;;;;;;52.97;24.67;;;2.40;99.90;;;;;;5091187;28;20099;-84
2022/11/22 01:22:09;;;;;;;47.03;25.52;;;2.70;99.90;;;;;;5091766;28;20469;-86
2022/11/22 01:24:34;;;;;;;42.72;24.58;;;2.70;99.90;;;;;;5091182;28;20067;-84
2022/11/22 01:27:00;;;;;;;52.13;26.80;;;2.60;99.90;;;;;;5080234;28;20113;-81
2022/11/22 01:29:25;;;;;;;48.42;25.13;;;2.50;99.90;;;;;;5095244;28;20138;-84
2022/11/22 01:31:51;;;;;;;52.92;25.90;;;2.70;99.90;;;;;;5087949;28;20036;-83
2022/11/22 01:34:17;;;;;;;48.13;24.98;;;2.70;99.90;;;;;;5081790;28;20548;-88
2022/11/22 01:36:43;;;;;;;54.65;27.45;;;2.40;99.90;;;;;;5077675;28;20040;-82
2022/11/22 01:39:12;;;;;;;51.38;26.65;;;2.60;99.90;;;;;;5125885;27;20052;-85
2022/11/22 01:41:38;;;;;;;49.28;26.60;;;2.70;99.90;;;;;;5091054;28;20328;-84
2022/11/22 01:44:24;;;;;;;60.00;29.13;;;2.70;99.90;;;;;;5074690;28;20055;-82
2022/11/22 01:46:59;;;;;;;51.53;26.40;;;2.70;99.90;;;;;;5091786;28;20439;-87
2022/11/22 01:49:34;;;;;;;52.25;26.92;;;2.40;99.90;;;;;;5076808;28;20494;-85
2022/11/22 01:52:04;;;;;;;;;;;2.70;99.90;;;;;;5094464;28;20037;-82
2022/11/22 01:54:34;;;;;;;47.22;23.40;;;2.60;99.90;;;;;;5105571;28;20050;-88
2022/11/22 01:57:11;;;;;;;55.00;28.35;;;2.70;99.90;;;;;;5060471;28;20094;-85
2022/11/22 01:59:41;;;;;;;51.57;24.97;;;2.60;99.90;;;;;;5093216;28;20074;-85
2022/11/22 02:02:07;;;;;;;60.95;29.98;;;2.80;99.90;;;;;;5079746;28;20066;-83
2022/11/22 02:04:35;;;;;;;57.85;28.77;;;2.50;99.90;;;;;;5081012;28;20120;-80
2022/11/22 02:07:18;;;;;;;54.50;27.58;;;2.50;99.90;;;;;;5098699;28;20032;-84
2022/11/22 02:09:45;;;;;;;55.83;27.55;;;2.60;99.90;;;;;;5087941;28;20149;-85
2022/11/22 02:12:11;;;;;;;57.33;28.23;;;2.70;99.90;;;;;;5071938;28;20387;-83
2022/11/22 02:14:39;;;;;;;55.40;27.98;;;2.70;99.90;;;;;;5123842;27;20032;-83
2022/11/22 02:17:04;;;;;;;64.20;30.70;;;2.80;99.90;;;;;;5125436;27;20051;-83
2022/11/22 02:19:42;;;;;;;58.58;29.08;;;2.60;99.90;;;;;;5070276;28;20040;-85
2022/11/22 02:22:38;;;;;;;62.22;27.90;;;2.50;99.90;;;;;;5072711;28;20573;-85
2022/11/22 02:25:19;;;;;;;59.33;30.15;;;2.60;99.90;;;;;;5059217;28;20093;-84
2022/11/22 02:27:45;;;;;;;59.38;29.65;;;2.50;99.90;;;;;;5090818;28;20101;-86
2022/11/22 02:30:12;;;;;;;55.28;27.55;;;2.50;99.90;;;;;;5086708;28;20134;-84
2022/11/22 02:32:37;;;;;;;60.83;31.20;;;2.40;99.90;;;;;;5079138;28;20122;-86
2022/11/22 02:35:15;;;;;;;63.13;30.98;;;2.70;99.90;;;;;;5090316;28;20043;-82
2022/11/22 02:37:41;;;;;;;62.55;29.77;;;2.80;99.90;;;;;;5087366;28;20130;-84
2022/11/22 02:40:28;;;;;;;61.47;30.30;;;2.50;99.90;;;;;;5083436;28;20498;-86
2022/11/22 02:43:07;;;;;;;60.38;31.27;;;2.50;99.90;;;;;;5084657;28;20077;-82
2022/11/22 02:45:33;;;;;;;57.50;29.52;;;2.70;99.90;;;;;;5098145;28;20468;-81
2022/11/22 02:48:11;;;;;;;60.45;30.60;;;2.60;99.90;;;;;;5048311;28;20127;-80
2022/11/22 02:50:36;;;;;;;60.55;30.90;;;2.90;99.90;;;;;;5118052;27;20032;-89
2022/11/22 02:53:04;;;;;;;55.75;27.90;;;2.80;99.90;;;;;;5117553;27;20059;-83
2022/11/22 02:55:29;;;;;;;51.55;26.30;;;2.80;99.90;;;;;;5086273;28;20048;-84
2022/11/22 02:57:55;;;;;;;58.90;29.83;;;2.70;99.90;;;;;;5065956;28;20059;-84
2022/11/22 03:00:21;;;;;;;58.22;30.13;;;2.60;99.90;;;;;;5086610;28;20058;-85
2022/11/22 03:02:47;;;;;;;56.45;28.88;;;2.70;99.90;;;;;;5085241;28;20165;-86
2022/11/22 03:05:13;;;;;;;64.80;27.80;;;3.00;99.90;;;;;;5063687;28;20495;-82
2022/11/22 03:07:39;;;;;;;62.05;32.97;;;2.70;99.90;;;;;;5114440;27;20045;-86
2022/11/22 03:10:23;;;;;;;55.90;28.25;;;2.70;99.90;;;;;;5068594;28;20401;-84
2022/11/22 03:12:49;;;;;;;53.78;28.08;;;2.70;99.90;;;;;;5101085;28;20044;-85
2022/11/22 03:15:16;;;;;;;62.75;28.30;;;2.70;99.90;;;;;;5112902;27;20666;-85
2022/11/22 03:17:42;;;;;;;51.83;27.10;;;2.70;99.90;;;;;;5080155;28;20117;-88
2022/11/22 03:20:08;;;;;;;61.33;30.80;;;3.00;99.90;;;;;;5061725;28;20068;-82
2022/11/22 03:22:34;;;;;;;55.70;29.50;;;2.70;99.90;;;;;;5086237;28;20360;-79
2022/11/22 03:25:00;;;;;;;58.90;28.50;;;2.90;99.90;;;;;;5111485;27;20044;-82
2022/11/22 03:27:26;;;;;;;50.58;26.20;;;2.80;99.90;;;;;;5116971;27;20031;-84
2022/11/22 03:29:52;;;;;;;51.13;26.15;;;3.00;99.90;;;;;;5065452;28;20386;-83
2022/11/22 03:32:17;;;;;;;53.50;26.65;;;3.10;99.90;;;;;;5085602;28;20085;-82
2022/11/22 03:34:43;;;;;;;48.03;26.50;;;3.10;99.90;;;;;;5084128;28;20040;-83
2022/11/22 03:37:09;;;;;;;51.20;28.38;;;2.90;99.90;;;;;;5120830;27;20075;-81
2022/11/22 03:39:34;;;;;;;53.20;27.30;;;2.90;99.90;;;;;;5089923;28;20040;-82
2022/11/22 03:42:00;;;;;;;48.70;25.13;;;2.90;99.90;;;;;;5072326;28;20039;-84
2022/11/22 03:44:26;;;;;;;47.85;26.42;;;3.10;99.90;;;;;;5101131;27;20109;-85
2022/11/22 03:46:51;;;;;;;50.08;25.73;;;3.10;99.90;;;;;;5071115;28;20037;-81
2022/11/22 03:49:17;;;;;;;48.40;26.33;;;3.20;99.90;;;;;;5069603;28;20053;-82
2022/11/22 03:51:43;;;;;;;45.70;24.23;;;3.00;99.90;;;;;;5090980;28;20046;-81
2022/11/22 03:54:12;;;;;;;44.72;25.20;;;2.90;99.90;;;;;;5092940;28;20056;-81
2022/11/22 03:56:39;;;;;;;56.97;27.08;;;3.20;99.90;;;;;;5073367;28;20045;-82
2022/11/22 03:59:05;;;;;;;46.17;24.55;;;3.00;99.90;;;;;;5077803;28;20043;-87
2022/11/22 04:01:30;;;;;;;49.75;24.02;;;2.90;99.90;;;;;;5090116;28;20099;-79
2022/11/22 04:03:57;;;;;;;52.53;26.08;;;3.20;99.90;;;;;;5084177;28;20032;-83
2022/11/22 04:06:22;;;;;;;46.60;24.95;;;3.00;99.90;;;;;;5069521;28;20040;-84
2022/11/22 04:08:48;;;;;;;48.13;25.27;;;3.10;99.90;;;;;;5121964;27;20035;-83
2022/11/22 04:11:14;;;;;;;49.15;25.77;;;3.10;99.90;;;;;;5070346;28;20501;-82
2022/11/22 04:16:25;;;;;;;49.47;25.88;;;3.20;99.90;;;;;;5093137;28;20387;-83
2022/11/22 04:18:51;;;;;;;50.83;25.38;;;3.00;99.90;;;;;;5075616;28;20040;-82
2022/11/22 04:21:34;;;;;;;47.85;24.75;;;3.20;99.90;;;;;;5075248;28;20039;-82
2022/11/22 04:26:52;;;;;;;43.95;24.23;;;3.10;99.90;;;;;;5093357;28;20079;-79
2022/11/22 04:29:19;;;;;;;46.25;25.02;;;3.10;99.90;;;;;;5069395;28;20092;-82
2022/11/22 04:34:30;;;;;;;56.03;27.27;;;3.30;99.90;;;;;;5095290;28;20101;-83
2022/11/22 04:36:59;;;;;;;50.45;25.40;;;3.30;99.90;;;;;;5128891;27;20444;-81
2022/11/22 04:39:25;;;;;;;45.42;25.05;;;3.50;99.90;;;;;;5074982;28;20371;-84
2022/11/22 04:44:39;;;;;;;49.83;25.88;;;3.40;99.90;;;;;;5085093;28;20073;-82
2022/11/22 04:44:40;;;;;;;45.00;25.25;;;3.30;99.90;;;;;;5098035;28;20066;-79
2022/11/22 04:47:11;;;;;;;56.15;26.98;;;3.50;99.90;;;;;;5097034;28;20123;-83
2022/11/22 04:49:36;;;;;;;46.20;25.30;;;3.40;99.90;;;;;;5119754;27;20032;-88
2022/11/22 04:54:50;;;;;;;49.10;25.00;;;3.30;99.90;;;;;;5081504;28;20379;-81
2022/11/22 04:57:16;;;;;;;51.53;26.65;;;3.40;99.90;;;;;;5087443;28;20043;-82
2022/11/22 04:59:42;;;;;;;52.05;25.27;;;3.60;99.90;;;;;;5090487;28;20391;-84
2022/11/22 05:02:08;;;;;;;50.28;25.90;;;3.40;99.90;;;;;;5074980;28;20471;-82
2022/11/22 05:04:33;;;;;;;47.42;25.33;;;3.40;99.90;;;;;;5091461;28;20036;-84
2022/11/22 05:06:59;;;;;;;51.03;25.30;;;3.40;99.90;;;;;;5092056;28;20118;-79
2022/11/22 05:09:25;;;;;;;48.58;24.52;;;3.70;99.90;;;;;;5060979;28;20106;-84
2022/11/22 05:11:50;;;;;;;50.47;24.98;;;3.70;99.90;;;;;;5055404;28;20199;-85
2022/11/22 05:14:16;;;;;;;59.75;27.05;;;3.50;99.90;;;;;;5077677;28;20056;-78
2022/11/22 05:16:42;;;;;;;48.47;25.00;;;3.70;99.90;;;;;;5102181;28;20040;-78
2022/11/22 05:19:09;;;;;;;53.10;25.33;;;3.70;99.90;;;;;;5109702;28;20048;-81
2022/11/22 05:21:37;;;;;;;48.75;26.33;;;3.50;99.90;;;;;;5102526;28;20156;-85
2022/11/22 05:24:03;;;;;;;49.10;25.70;;;3.70;99.90;;;;;;5077377;28;20044;-83
2022/11/22 05:26:31;;;;;;;51.42;25.65;;;3.80;99.90;;;;;;5076045;28;20089;-83
2022/11/22 05:28:58;;;;;;;44.88;24.63;;;3.70;99.90;;;;;;5090399;28;20067;-86
2022/11/22 05:31:26;;;;;;;46.10;23.85;;;3.70;99.90;;;;;;5075836;28;20159;-84
2022/11/22 05:33:53;;;;;;;49.15;24.17;;;3.50;99.90;;;;;;5114470;28;20036;-80
2022/11/22 05:36:19;;;;;;;53.20;25.88;;;3.50;99.90;;;;;;5091993;28;20079;-83
2022/11/22 05:38:45;;;;;;;51.63;24.50;;;3.60;99.90;;;;;;5074196;28;20039;-86
2022/11/22 05:41:13;;;;;;;53.17;24.38;;;3.90;99.90;;;;;;5088661;28;20039;-84
2022/11/22 05:43:39;;;;;;;49.20;25.33;;;3.80;99.90;;;;;;5091999;28;20129;-84
2022/11/22 05:46:14;;;;;;;46.60;23.77;;;3.70;99.90;;;;;;5091543;28;20039;-82
2022/11/22 05:48:41;;;;;;;43.92;24.63;;;3.70;99.90;;;;;;5092389;28;20436;-86
2022/11/22 05:51:12;;;;;;;49.17;25.67;;;3.90;99.90;;;;;;5099692;28;20033;-85
2022/11/22 05:57:16;;;;;;;45.10;23.33;;;4.00;99.90;;;;;;5075878;28;20040;-80
2022/11/22 05:59:42;;;;;;;49.35;26.23;;;4.10;99.90;;;;;;5087593;28;20626;-82
2022/11/22 06:02:07;;;;;;;48.00;25.35;;;3.80;99.90;;;;;;5096879;28;20062;-79
2022/11/22 06:04:33;;;;;;;47.47;23.60;;;4.00;99.90;;;;;;5081793;28;20120;-81
2022/11/22 06:06:59;;;;;;;51.58;26.50;;;3.90;99.90;;;;;;5093040;28;20035;-80
2022/11/22 06:09:24;;;;;;;49.92;24.63;;;3.90;99.90;;;;;;5104297;28;21741;-79
2022/11/22 06:11:50;;;;;;;49.25;26.10;;;3.80;99.90;;;;;;5127021;27;20051;-81
2022/11/22 06:14:16;;;;;;;50.03;24.27;;;4.10;99.90;;;;;;5074497;28;20115;-81
2022/11/22 06:16:41;;;;;;;52.03;23.75;;;4.10;99.90;;;;;;5094742;28;20410;-82
2022/11/22 06:19:07;;;;;;;46.20;24.88;;;4.10;99.90;;;;;;5076797;28;20044;-84
2022/11/22 06:21:33;;;;;;;44.03;23.80;;;3.90;99.90;;;;;;5090960;28;20052;-81
2022/11/22 06:23:59;;;;;;;48.30;23.75;;;4.10;99.90;;;;;;5064945;28;20047;-80
2022/11/22 06:26:25;;;;;;;48.08;25.60;;;3.80;99.90;;;;;;5082145;28;20043;-81
2022/11/22 06:28:51;;;;;;;52.42;25.33;;;4.10;99.90;;;;;;5116026;28;20084;-81
2022/11/22 06:31:19;;;;;;;56.55;25.98;;;4.00;99.90;;;;;;5096030;28;20150;-79
2022/11/22 06:33:46;;;;;;;45.47;25.00;;;4.20;99.90;;;;;;5064256;28;20523;-78
2022/11/22 06:36:13;;;;;;;48.05;26.15;;;4.20;99.90;;;;;;5074140;28;20039;-81
2022/11/22 06:38:40;;;;;;;50.70;25.52;;;3.90;99.90;;;;;;5076801;28;20040;-77
2022/11/22 06:41:12;;;;;;;45.72;24.63;;;4.00;99.90;;;;;;5091573;28;20466;-78
2022/11/22 06:43:38;;;;;;;48.33;24.58;;;4.20;99.90;;;;;;5094454;28;20051;-80
2022/11/22 06:46:06;;;;;;;48.70;25.13;;;4.20;99.90;;;;;;5091326;28;20036;-82
2022/11/22 06:48:37;;;;;;;50.72;24.55;;;3.90;99.90;;;;;;5121439;27;20119;-78
2022/11/22 06:51:05;;;;;;;42.72;24.05;;;4.00;99.90;;;;;;5088820;28;20037;-81
2022/11/22 06:53:33;;;;;;;48.60;23.90;;;4.00;99.90;;;;;;5086988;28;20070;-82
2022/11/22 06:56:40;;;;;;;49.78;25.50;;;4.00;99.90;;;;;;5067765;28;20104;-82
2022/11/22 06:59:06;;;;;;;53.13;24.45;;;4.30;99.90;;;;;;5124162;28;20044;-81
2022/11/22 07:01:33;;;;;;;42.25;24.08;;;4.00;99.90;;;;;;5098638;28;20467;-82
2022/11/22 07:03:59;;;;;;;45.95;24.23;;;4.20;99.90;;;;;;5091844;28;20055;-81
2022/11/22 07:06:27;;;;;;;44.33;23.60;;;4.30;99.90;;;;;;5111935;28;20147;-79
2022/11/22 07:08:53;;;;;;;46.08;24.02;;;4.10;99.90;;;;;;5094858;28;20377;-82
2022/11/22 07:11:24;;;;;;;44.22;23.27;;;4.20;99.90;;;;;;5072748;28;20044;-81
2022/11/22 07:13:50;;;;;;;47.05;23.13;;;4.40;99.90;;;;;;5118250;27;20090;-78
2022/11/22 07:16:18;;;;;;;48.78;23.73;;;4.40;99.90;;;;;;5085693;28;20090;-84
2022/11/22 07:18:45;;;;;;;44.65;23.58;;;4.30;99.90;;;;;;5068541;28;20076;-86
2022/11/22 07:21:12;;;;;;;48.55;23.48;;;4.40;99.90;;;;;;5100494;27;20040;-80
2022/11/22 07:23:40;;;;;;;45.97;22.17;;;4.40;99.90;;;;;;5117172;27;20051;-82
2022/11/22 07:26:06;;;;;;;43.95;22.65;;;4.20;99.90;;;;;;5098707;28;20140;-88
2022/11/22 07:28:31;;;;;;;47.25;22.17;;;4.50;99.90;;;;;;5097230;28;20490;-81
2022/11/22 07:31:03;;;;;;;39.65;21.23;;;4.40;99.90;;;;;;5096498;27;20043;-78
2022/11/22 07:33:28;;;;;;;46.75;22.33;;;4.50;99.90;;;;;;5085032;28;20067;-80
2022/11/22 07:35:55;;;;;;;48.17;22.90;;;4.40;99.90;;;;;;5083944;28;20581;-79
2022/11/22 07:38:20;;;;;;;44.35;22.33;;;4.40;99.90;;;;;;5083614;28;20052;-82
2022/11/22 07:40:46;;;;;;;43.50;21.40;;;4.70;99.90;;;;;;5090290;28;20047;-81
2022/11/22 07:43:14;;;;;;;44.78;20.88;;;4.70;99.90;;;;;;5086835;28;20487;-81
2022/11/22 07:45:39;;;;;;;40.67;22.15;;;4.50;99.90;;;;;;5098207;28;20062;-80
2022/11/22 07:48:05;;;;;;;51.90;21.20;;;4.70;99.90;;;;;;5083453;28;20048;-78
2022/11/22 07:50:33;;;;;;;42.65;19.83;;;4.60;99.90;;;;;;5083162;28;20040;-83
2022/11/22 07:52:59;;;;;;;46.67;20.35;;;4.70;99.90;;;;;;5089130;28;20074;-80
2022/11/22 07:55:26;;;;;;;40.45;19.83;;;4.60;99.90;;;;;;5100794;27;20047;-82
2022/11/22 07:57:58;;;;;;;41.95;19.80;;;4.60;99.90;;;;;;5121087;27;20075;-83
2022/11/22 08:00:24;;;;;;;41.03;18.63;;;4.80;99.90;;;;;;5063352;28;20123;-79
2022/11/22 08:02:50;;;;;;;44.03;17.98;;;4.90;99.90;;;;;;5070544;28;20173;-83
2022/11/22 08:05:16;;;;;;;37.35;16.80;;;4.70;99.90;;;;;;5099818;28;20048;-82
2022/11/22 08:07:49;;;;;;;42.83;16.05;;;4.90;99.90;;;;;;5082401;28;20177;-80
2022/11/22 08:10:16;;;;;;;35.97;13.98;;;4.80;99.90;;;;;;5081350;28;20081;-81
2022/11/22 08:12:42;;;;;;;32.45;12.95;;;5.00;99.90;;;;;;5070745;28;20086;-81
2022/11/22 08:15:10;;;;;;;35.17;12.60;;;5.20;99.90;;;;;;5068174;28;20123;-81
2022/11/22 08:17:37;;;;;;;35.08;12.15;;;5.10;99.90;;;;;;5083246;28;20506;-81
2022/11/22 08:20:04;;;;;;;41.05;11.30;;;5.10;99.90;;;;;;5078499;28;20052;-78
2022/11/22 08:22:30;;;;;;;28.45;10.23;;;5.10;99.90;;;;;;5086122;28;20104;-82
2022/11/22 08:24:56;;;;;;;27.15;9.68;;;5.40;99.90;;;;;;5062320;28;20119;-82
2022/11/22 08:27:23;;;;;;;31.98;9.63;;;5.20;99.90;;;;;;5082767;28;20048;-82
2022/11/22 08:29:49;;;;;;;21.85;8.50;;;5.20;99.90;;;;;;5084586;28;20537;-86
2022/11/22 08:32:14;;;;;;;30.42;8.63;;;5.10;99.90;;;;;;5120709;27;20096;-82
2022/11/22 08:34:40;;;;;;;30.40;8.27;;;5.40;99.90;;;;;;5086464;28;20044;-79
2022/11/22 08:37:06;;;;;;;28.88;9.73;;;5.30;99.90;;;;;;5067550;28;20059;-85
2022/11/22 08:39:32;;;;;;;25.45;8.57;;;5.40;99.90;;;;;;5082400;28;20151;-78
2022/11/22 08:41:57;;;;;;;29.75;8.45;;;5.30;99.90;;;;;;5067026;28;20044;-79
2022/11/22 08:44:23;;;;;;;25.70;7.57;;;5.40;99.90;;;;;;5066516;28;20077;-83
2022/11/22 08:46:49;;;;;;;27.20;7.50;;;5.40;99.90;;;;;;5083800;28;20491;-84
2022/11/22 08:49:22;;;;;;;26.67;7.55;;;5.40;99.90;;;;;;5072564;28;20127;-84
2022/11/22 08:51:48;;;;;;;29.50;7.40;;;5.20;99.90;;;;;;5076688;28;20075;-84
2022/11/22 08:54:14;;;;;;;19.98;6.93;;;5.50;99.90;;;;;;5071069;28;20052;-80
2022/11/22 08:56:41;;;;;;;26.40;6.93;;;5.50;99.90;;;;;;5073956;28;20036;-82
2022/11/22 08:59:07;;;;;;;28.17;7.35;;;5.30;99.90;;;;;;5073990;28;20349;-85
2022/11/22 09:01:33;;;;;;;23.65;6.40;;;5.40;99.90;;;;;;5092011;28;20108;-79
2022/11/22 09:03:58;;;;;;;19.25;6.30;;;5.50;99.90;;;;;;5123019;27;20185;-81
2022/11/22 09:06:24;;;;;;;19.92;6.28;;;5.40;99.90;;;;;;5092209;28;20056;-81
2022/11/22 09:08:50;;;;;;;25.70;5.80;;;5.70;99.90;;;;;;5090581;28;20047;-80
2022/11/22 09:11:18;;;;;;;21.08;6.03;;;5.60;99.90;;;;;;5075008;28;20178;-80
2022/11/22 09:13:45;;;;;;;29.13;6.07;;;5.50;99.90;;;;;;5072478;28;20051;-84
2022/11/22 09:16:16;;;;;;;22.42;6.18;;;5.70;99.90;;;;;;5075318;28;20058;-85
2022/11/22 09:18:42;;;;;;;20.50;6.10;;;5.70;99.90;;;;;;5072352;28;20139;-83
2022/11/22 09:21:14;;;;;;;24.98;5.95;;;5.80;99.90;;;;;;5090768;28;20283;-84
2022/11/22 09:23:42;;;;;;;22.80;5.43;;;5.60;99.90;;;;;;5088067;28;20788;-86
2022/11/22 09:26:12;;;;;;;22.40;5.55;;;5.70;99.90;;;;;;5061354;28;20056;-84
2022/11/22 09:28:38;;;;;;;17.60;4.90;;;5.80;99.90;;;;;;5073579;28;20101;-82
2022/11/22 09:31:12;;;;;;;19.75;5.40;;;5.60;99.90;;;;;;5107573;28;20139;-81
2022/11/22 09:33:39;;;;;;;23.38;5.30;;;5.60;99.90;;;;;;5071995;28;20051;-81
2022/11/22 09:36:10;;;;;;;19.85;5.20;;;5.60;99.90;;;;;;5125449;27;20101;-79
2022/11/22 09:38:36;;;;;;;23.17;5.53;;;5.80;99.90;;;;;;5104614;27;20048;-81
2022/11/22 09:41:15;;;;;;;25.23;5.68;;;5.60;99.90;;;;;;5094797;27;20051;-80
2022/11/22 09:44:05;;;;;;;26.50;5.85;;;5.60;99.90;;;;;;5090717;28;20078;-81
2022/11/22 09:47:09;;;;;;;21.30;5.32;;;5.80;99.90;;;;;;5070625;28;20097;-84
2022/11/22 09:49:52;;;;;;;22.95;5.80;;;5.70;99.90;;;;;;5034603;28;20088;-80
2022/11/22 09:52:26;;;;;;;16.35;4.60;;;5.60;99.90;;;;;;5069774;28;20048;-77
2022/11/22 09:58:50;;;;;;;19.27;4.60;;;5.80;99.90;;;;;;5059841;28;20345;-81
2022/11/22 10:01:46;;;;;;;16.13;4.50;;;5.80;99.90;;;;;;5030642;28;20502;-83
2022/11/22 10:04:32;;;;;;;14.02;3.55;;;5.90;99.90;;;;;;5040209;28;20139;-83
2022/11/22 10:07:12;;;;;;;13.55;3.65;;;5.70;99.90;;;;;;5079414;28;20160;-79
2022/11/22 10:09:50;;;;;;;17.83;3.60;;;5.90;99.90;;;;;;5046434;28;20049;-86
2022/11/22 10:12:28;;;;;;;13.65;3.72;;;5.80;99.90;;;;;;5032930;28;20041;-82
2022/11/22 10:15:03;;;;;;;16.35;3.47;;;5.90;99.90;;;;;;5048127;28;20456;-82
2022/11/22 10:17:40;;;;;;;;;;;5.80;99.90;;;;;;5048427;28;20106;-82
2022/11/22 10:20:10;;;;;;;15.20;3.10;;;5.90;99.90;;;;;;5033936;28;19916;-84
2022/11/22 10:22:37;;;;;;;13.02;3.13;;;5.90;99.90;;;;;;5090604;28;20480;-79
2022/11/22 10:25:12;;;;;;;15.75;3.58;;;5.90;99.90;;;;;;5063167;28;20037;-83
2022/11/22 10:27:40;;;;;;;13.57;3.50;;;6.10;99.90;;;;;;5085117;28;20048;-81
2022/11/22 10:30:14;;;;;;;20.33;3.25;;;6.10;99.90;;;;;;5112962;27;20360;-81
2022/11/22 10:33:15;;;;;;;13.75;3.30;;;6.10;99.90;;;;;;5083021;28;20122;-83
2022/11/22 10:36:06;;;;;;;19.75;3.38;;;6.10;99.90;;;;;;5079456;28;20107;-82
2022/11/22 10:38:45;;;;;;;13.65;3.35;;;6.20;99.90;;;;;;5085145;28;20068;-79
2022/11/22 10:41:35;;;;;;;14.05;3.30;;;6.10;99.90;;;;;;5088189;28;20054;-80
2022/11/22 10:44:06;;;;;;;16.00;2.88;;;6.20;99.90;;;;;;5087825;28;20035;-84
2022/11/22 10:46:45;;;;;;;19.10;3.63;;;6.20;99.90;;;;;;5087415;28;20201;-84
2022/11/22 10:49:25;;;;;;;15.05;2.92;;;6.40;99.90;;;;;;5087757;28;20190;-83
2022/11/22 10:52:43;;;;;;;20.60;3.28;;;6.50;99.90;;;;;;5104657;28;20115;-79
2022/11/22 10:55:43;;;;;;;11.63;2.55;;;6.60;99.90;;;;;;5055331;28;20056;-81
2022/11/22 10:58:33;;;;;;;14.63;3.30;;;6.70;99.90;;;;;;5050257;28;20143;-81
2022/11/22 11:01:03;;;;;;;14.45;2.83;;;6.70;99.90;;;;;;5084144;28;20052;-81
2022/11/22 11:03:42;;;;;;;11.77;2.60;;;6.80;99.90;;;;;;5061796;28;20040;-80
2022/11/22 11:06:20;;;;;;;14.45;2.88;;;6.70;99.90;;;;;;5066661;28;20489;-83
2022/11/22 11:09:22;;;;;;;7.57;2.05;;;6.60;99.90;;;;;;5080128;28;20176;-83
2022/11/22 11:11:50;;;;;;;11.95;2.45;;;6.70;99.90;;;;;;5037849;28;20084;-80
2022/11/22 11:14:36;;;;;;;15.20;2.70;;;6.70;99.90;;;;;;5039579;28;20433;-82
2022/11/22 11:17:05;;;;;;;7.70;2.42;;;6.80;99.90;;;;;;5025571;28;20057;-80
2022/11/22 11:19:36;;;;;;;10.77;2.30;;;6.80;99.90;;;;;;5041805;28;20053;-81
2022/11/22 11:22:17;;;;;;;9.57;2.63;;;6.70;99.90;;;;;;5021698;28;20048;-82
2022/11/22 11:24:42;;;;;;;10.80;2.60;;;6.80;99.90;;;;;;5047365;28;20053;-80
2022/11/22 11:27:10;;;;;;;12.10;2.58;;;6.80;99.90;;;;;;5031266;28;20100;-79
2022/11/22 11:29:46;;;;;;;12.13;2.58;;;6.70;99.90;;;;;;5036051;28;20053;-81
2022/11/22 11:32:19;;;;;;;10.73;2.22;;;6.80;99.90;;;;;;5014331;28;20319;-82
2022/11/22 11:35:03;;;;;;;9.65;2.10;;;6.80;99.90;;;;;;5021607;28;20049;-82
2022/11/22 11:37:36;;;;;;;9.40;2.60;;;6.80;99.90;;;;;;5026786;28;21587;-81
2022/11/22 11:40:04;;;;;;;11.77;2.80;;;6.80;99.90;;;;;;5004457;28;20412;-80
2022/11/22 11:42:34;;;;;;;10.30;2.30;;;6.90;99.90;;;;;;4992999;28;20400;-81
2022/11/22 11:45:18;;;;;;;15.38;2.40;;;6.80;99.90;;;;;;5043477;28;20531;-80
2022/11/22 11:47:43;;;;;;;12.50;2.15;;;6.90;99.90;;;;;;5088603;27;20063;-83
2022/11/22 11:50:19;;;;;;;11.15;2.20;;;7.00;99.90;;;;;;5063605;28;20052;-81
2022/11/22 11:52:54;;;;;;;7.82;2.13;;;7.00;99.90;;;;;;5082637;28;20056;-82
2022/11/22 11:55:20;;;;;;;13.50;2.47;;;7.10;99.90;;;;;;5088157;28;20438;-80
2022/11/22 11:57:47;;;;;;;10.05;2.28;;;7.10;99.90;;;;;;5107045;28;20087;-82
2022/11/22 12:00:34;;;;;;;10.20;2.28;;;7.20;99.90;;;;;;5082377;28;20071;-82
2022/11/22 12:03:06;;;;;;;13.43;3.03;;;7.30;99.90;;;;;;5069454;28;20475;-82
2022/11/22 12:05:33;;;;;;;9.98;2.42;;;7.30;99.90;;;;;;5088424;28;20048;-80
2022/11/22 12:07:59;;;;;;;10.52;2.13;;;7.50;99.90;;;;;;5070684;28;20139;-80
2022/11/22 12:10:42;;;;;;;15.73;2.20;;;7.60;99.90;;;;;;5066208;28;20079;-83
2022/11/22 12:13:17;;;;;;;9.55;2.38;;;7.70;99.90;;;;;;5068329;28;20054;-85
2022/11/22 12:16:12;;;;;;;13.07;2.30;;;7.70;99.90;;;;;;5087888;28;20112;-82
2022/11/22 12:18:49;;;;;;;8.07;2.20;;;7.70;99.90;;;;;;5068721;28;20116;-80
2022/11/22 12:21:37;;;;;;;14.82;2.55;;;7.60;99.90;;;;;;5073091;28;20087;-86
2022/11/22 12:24:26;;;;;;;8.63;2.40;;;7.60;99.90;;;;;;5087402;28;20059;-81
2022/11/22 12:26:54;;;;;;;9.43;2.50;;;7.60;99.90;;;;;;5091056;28;20440;-85
2022/11/22 12:29:20;;;;;;;9.80;2.00;;;7.50;99.90;;;;;;5100052;28;20703;-79
2022/11/22 12:31:52;;;;;;;13.52;2.53;;;7.50;99.90;;;;;;5094029;28;20115;-86
2022/11/22 12:34:42;;;;;;;11.60;2.50;;;7.50;99.90;;;;;;5088389;28;20040;-81
2022/11/22 12:37:16;;;;;;;14.32;2.38;;;7.40;99.90;;;;;;5089722;28;20044;-81
2022/11/22 12:39:47;;;;;;;10.85;2.25;;;7.40;99.90;;;;;;5084078;28;20128;-84
2022/11/22 12:42:18;;;;;;;9.85;2.08;;;7.40;99.90;;;;;;5071448;28;20048;-83
2022/11/22 12:45:05;;;;;;;13.63;2.45;;;7.30;99.90;;;;;;5104180;28;20127;-81
2022/11/22 12:47:38;;;;;;;8.60;2.00;;;7.30;99.90;;;;;;5093770;28;20044;-83
2022/11/22 12:50:16;;;;;;;13.52;2.17;;;7.20;99.90;;;;;;5066106;28;20049;-86
2022/11/22 12:52:50;;;;;;;14.02;2.13;;;7.20;99.90;;;;;;5112442;28;20132;-83
2022/11/22 12:55:26;;;;;;;10.68;2.50;;;7.20;99.90;;;;;;5096510;28;20096;-82
2022/11/22 12:58:13;;;;;;;10.82;2.17;;;7.20;99.90;;;;;;5115365;27;20051;-80
2022/11/22 13:00:49;;;;;;;7.38;1.95;;;7.10;99.90;;;;;;5089525;28;20074;-82
2022/11/22 13:03:23;;;;;;;8.88;1.95;;;7.20;99.90;;;;;;5093743;28;20056;-80
2022/11/22 13:05:57;;;;;;;11.10;2.22;;;7.20;99.90;;;;;;5092428;28;20052;-82
2022/11/22 13:08:56;;;;;;;9.82;2.47;;;7.10;99.90;;;;;;5088788;28;20063;-85
2022/11/22 13:11:31;;;;;;;11.85;1.70;;;7.10;99.90;;;;;;5101781;28;20076;-82
2022/11/22 13:14:05;;;;;;;9.27;2.00;;;7.20;99.90;;;;;;5073363;28;20674;-84
2022/11/22 13:16:31;;;;;;;7.38;1.92;;;7.10;99.90;;;;;;5089765;28;20118;-85